createdAt,value
2023-05-24T00:09:10.149Z,88.75
2023-05-24T00:19:18.474Z,88.89
2023-05-24T00:29:21.630Z,88.43
2023-05-24T00:39:25.975Z,88.50
2023-05-24T00:49:29.174Z,89.15
2023-05-24T00:59:33.594Z,89.23
2023-05-24T01:09:50.582Z,89.83
2023-05-24T01:20:00.032Z,92.11
2023-05-24T01:30:06.227Z,91.96
2023-05-24T01:40:10.460Z,91.73
2023-05-24T01:50:19.679Z,93.26
2023-05-24T02:00:23.602Z,92.96
2023-05-24T02:10:27.743Z,92.38
2023-05-24T02:20:31.310Z,92.01
2023-05-24T02:30:35.523Z,91.48
2023-05-24T02:40:38.198Z,91.37
2023-05-24T02:50:42.395Z,91.86
2023-05-24T03:00:45.616Z,91.15
2023-05-24T03:10:49.629Z,92.04
2023-05-24T03:20:52.271Z,92.04
2023-05-24T03:30:56.412Z,91.74
2023-05-24T03:40:59.169Z,91.37
2023-05-24T03:51:03.223Z,91.47
2023-05-24T04:01:06.663Z,91.85
2023-05-24T04:11:11.196Z,91.36
2023-05-24T04:21:13.995Z,91.21
2023-05-24T04:31:18.188Z,90.26
2023-05-24T04:41:22.388Z,90.56
2023-05-24T04:51:26.506Z,90.73
2023-05-24T05:01:29.352Z,90.04
2023-05-24T05:11:33.439Z,88.70
2023-05-24T05:21:36.431Z,87.25
2023-05-24T05:31:40.642Z,86.65
2023-05-24T05:41:45.950Z,86.32
2023-05-24T05:51:52.888Z,84.99
2023-05-24T06:01:55.987Z,83.70
2023-05-24T06:12:00.033Z,82.51
2023-05-24T06:22:02.714Z,80.49
2023-05-24T06:32:07.421Z,81.23
2023-05-24T06:42:10.111Z,80.65
2023-05-24T06:52:14.096Z,80.47
2023-05-24T07:02:17.204Z,79.28
2023-05-24T07:12:21.251Z,78.79
2023-05-24T07:22:25.389Z,78.49
2023-05-24T07:32:29.759Z,78.23
2023-05-24T07:42:32.728Z,75.05
2023-05-24T07:52:36.784Z,74.55
2023-05-24T08:02:39.614Z,76.30
2023-05-24T08:12:43.876Z,75.06
2023-05-24T08:22:48.339Z,68.94
2023-05-24T08:32:53.166Z,65.08
2023-05-24T08:42:57.206Z,63.27
2023-05-24T08:53:02.721Z,64.73
2023-05-24T09:03:07.261Z,63.21
2023-05-24T09:13:12.671Z,61.05
2023-05-24T09:23:16.688Z,61.10
2023-05-24T09:33:24.135Z,61.02
2023-05-24T09:43:27.234Z,57.13
2023-05-24T09:53:32.258Z,59.06
2023-05-24T10:03:37.376Z,55.65
2023-05-24T10:13:43.139Z,56.99
2023-05-24T10:23:49.743Z,56.06
2023-05-24T10:34:01.375Z,58.19
2023-05-24T10:44:13.216Z,59.82
2023-05-24T10:54:19.234Z,61.47
2023-05-24T11:04:22.307Z,59.80
2023-05-24T11:14:30.093Z,58.67
2023-05-24T11:24:33.986Z,55.29
2023-05-24T11:34:39.908Z,54.11
2023-05-24T11:44:42.655Z,57.83
2023-05-24T11:54:46.729Z,58.91
2023-05-24T12:04:49.457Z,56.00
2023-05-24T12:14:56.499Z,55.45
2023-05-24T12:24:59.349Z,50.94
2023-05-24T12:35:06.153Z,48.89
2023-05-24T12:45:10.462Z,52.39
2023-05-24T12:55:15.379Z,51.77
2023-05-24T13:05:18.764Z,52.22
2023-05-24T13:15:24.022Z,52.32
2023-05-24T13:25:27.176Z,47.72
2023-05-24T13:35:32.178Z,48.93
2023-05-24T13:45:34.866Z,52.20
2023-05-24T13:55:38.933Z,55.28
2023-05-24T14:05:41.853Z,55.05
2023-05-24T14:15:46.751Z,56.10
2023-05-24T14:25:51.808Z,56.26
2023-05-24T14:35:55.812Z,57.64
2023-05-24T14:45:58.632Z,58.50
2023-05-24T14:56:03.841Z,58.41
2023-05-24T15:06:06.664Z,58.93
2023-05-24T15:16:10.655Z,59.74
2023-05-24T15:26:13.580Z,59.02
2023-05-24T15:36:17.698Z,58.68
2023-05-24T15:46:22.076Z,61.13
2023-05-24T15:56:26.164Z,63.63
2023-05-24T16:06:28.932Z,62.70
2023-05-24T16:16:33.073Z,62.06
2023-05-24T16:26:35.906Z,62.65
2023-05-24T16:36:40.777Z,63.34
2023-05-24T16:46:43.606Z,65.06
2023-05-24T16:56:48.045Z,65.61
2023-05-24T17:06:50.733Z,66.05
2023-05-24T17:16:54.777Z,66.48
2023-05-24T17:26:57.514Z,66.80
2023-05-24T17:37:01.601Z,64.75
2023-05-24T17:47:04.568Z,64.98
2023-05-24T17:57:08.710Z,65.09
2023-05-24T18:07:11.422Z,65.76
2023-05-24T18:17:15.715Z,67.03
2023-05-24T18:27:18.753Z,68.08
2023-05-24T18:37:23.071Z,68.59
2023-05-24T18:47:25.911Z,69.42
2023-05-24T18:57:31.163Z,70.53
2023-05-24T19:07:35.416Z,71.32
2023-05-24T19:17:39.501Z,72.16
2023-05-24T19:27:57.966Z,73.25
2023-05-24T19:38:03.750Z,74.93
2023-05-24T19:48:09.499Z,75.23
2023-05-24T19:58:13.572Z,76.76
2023-05-24T20:08:16.582Z,78.43
2023-05-24T20:18:20.649Z,79.49
2023-05-24T20:28:30.927Z,81.47
2023-05-24T20:38:37.271Z,83.66
2023-05-24T20:48:41.210Z,84.13
2023-05-24T20:58:46.120Z,84.46
2023-05-24T21:08:48.837Z,84.30
2023-05-24T21:18:53.157Z,85.06
2023-05-24T21:28:55.781Z,85.58
2023-05-24T21:39:00.452Z,86.31
2023-05-24T21:49:03.150Z,86.78
2023-05-24T21:59:07.425Z,87.31
2023-05-24T22:09:10.534Z,88.30
2023-05-24T22:19:18.319Z,88.92
2023-05-24T22:29:25.356Z,90.35
2023-05-24T22:39:29.383Z,90.05
2023-05-24T22:49:33.953Z,90.37
2023-05-24T22:59:38.255Z,90.12
2023-05-24T23:09:41.496Z,89.89
2023-05-24T23:19:45.619Z,90.01
2023-05-24T23:29:48.381Z,90.17
2023-05-24T23:39:52.439Z,90.63
2023-05-24T23:49:55.279Z,90.92
2023-05-24T23:59:59.308Z,91.07
